createdAt,value
2022-12-27T00:00:15.864Z,3.00
2022-12-27T00:02:44.648Z,2.93
2022-12-27T00:05:15.726Z,2.87
2022-12-27T00:07:45.175Z,2.88
2022-12-27T00:10:15.202Z,2.79
2022-12-27T00:12:46.627Z,2.82
2022-12-27T00:15:15.061Z,2.78
2022-12-27T00:17:43.944Z,2.81
2022-12-27T00:20:13.340Z,2.85
2022-12-27T00:22:42.236Z,2.74
2022-12-27T00:25:11.918Z,2.72
2022-12-27T00:27:41.958Z,2.73
2022-12-27T00:30:11.924Z,2.68
2022-12-27T00:32:40.573Z,2.74
2022-12-27T00:35:10.339Z,2.76
2022-12-27T00:37:38.826Z,2.76
2022-12-27T00:40:09.391Z,2.75
2022-12-27T00:42:38.047Z,2.73
2022-12-27T00:45:09.936Z,2.80
2022-12-27T00:47:38.735Z,2.88
2022-12-27T00:50:08.266Z,2.73
2022-12-27T00:52:36.838Z,2.65
2022-12-27T00:55:06.396Z,2.62
2022-12-27T00:57:35.143Z,2.61
2022-12-27T01:00:09.787Z,2.60
2022-12-27T01:02:41.081Z,2.55
2022-12-27T01:05:10.321Z,2.55
2022-12-27T01:07:39.209Z,2.40
2022-12-27T01:10:08.993Z,2.33
2022-12-27T01:12:38.604Z,2.32
2022-12-27T01:15:10.191Z,2.34
2022-12-27T01:17:40.415Z,2.24
2022-12-27T01:20:10.853Z,2.35
2022-12-27T01:22:39.447Z,2.21
2022-12-27T01:25:09.636Z,2.27
2022-12-27T01:27:38.521Z,2.22
2022-12-27T01:30:10.312Z,2.28
2022-12-27T01:32:40.240Z,2.27
2022-12-27T01:35:10.051Z,2.31
2022-12-27T01:37:38.685Z,2.29
2022-12-27T01:40:09.700Z,2.26
2022-12-27T01:42:53.256Z,2.40
2022-12-27T01:45:23.644Z,2.37
2022-12-27T01:48:02.323Z,2.30
2022-12-27T01:50:36.610Z,2.34
2022-12-27T01:53:15.318Z,2.37
2022-12-27T01:55:47.514Z,2.34
2022-12-27T01:58:23.315Z,2.39
2022-12-27T02:00:53.025Z,2.44
2022-12-27T02:03:30.227Z,2.27
2022-12-27T02:06:03.249Z,2.20
2022-12-27T02:08:45.184Z,2.31
2022-12-27T02:11:16.050Z,2.28
2022-12-27T02:13:47.631Z,2.21
2022-12-27T02:16:19.311Z,2.14
2022-12-27T02:18:49.566Z,1.98
2022-12-27T02:22:16.804Z,2.11
2022-12-27T02:25:07.472Z,2.04
2022-12-27T02:27:50.762Z,2.18
2022-12-27T02:30:22.820Z,2.09
2022-12-27T02:33:04.268Z,2.04
2022-12-27T02:35:40.459Z,2.11
2022-12-27T02:38:16.877Z,2.21
2022-12-27T02:41:05.098Z,2.21
2022-12-27T02:43:52.578Z,2.17
2022-12-27T02:46:44.215Z,2.25
2022-12-27T02:49:41.224Z,2.17
2022-12-27T02:52:41.457Z,2.20
2022-12-27T02:55:35.572Z,1.97
2022-12-27T02:58:31.873Z,2.04
2022-12-27T03:01:33.405Z,1.95
2022-12-27T03:04:27.466Z,1.89
2022-12-27T03:07:24.283Z,2.03
2022-12-27T03:10:33.168Z,1.92
2022-12-27T03:13:41.169Z,1.93
2022-12-27T03:16:23.525Z,1.91
2022-12-27T03:19:11.955Z,1.92
2022-12-27T03:22:04.411Z,1.94
2022-12-27T03:24:56.268Z,2.00
2022-12-27T03:27:32.938Z,2.02
2022-12-27T03:30:24.027Z,1.89
2022-12-27T03:33:14.325Z,1.88
2022-12-27T03:36:11.299Z,1.90
2022-12-27T03:38:48.930Z,1.80
2022-12-27T03:41:44.864Z,1.63
2022-12-27T03:44:25.589Z,1.66
2022-12-27T03:46:58.882Z,1.66
2022-12-27T03:49:36.735Z,1.68
2022-12-27T03:52:14.632Z,1.63
2022-12-27T03:54:46.991Z,1.77
2022-12-27T03:57:20.912Z,1.78
2022-12-27T03:59:49.628Z,1.76
2022-12-27T04:02:19.033Z,1.90
2022-12-27T04:04:47.950Z,1.82
2022-12-27T04:07:18.057Z,1.93
2022-12-27T04:10:04.130Z,2.02
2022-12-27T04:12:49.891Z,2.08
2022-12-27T04:15:36.420Z,2.11
2022-12-27T04:18:23.243Z,2.18
2022-12-27T04:21:09.900Z,2.20
2022-12-27T04:23:57.948Z,2.32
2022-12-27T04:26:43.923Z,2.42
2022-12-27T04:29:29.974Z,2.44
2022-12-27T04:32:18.846Z,2.48
2022-12-27T04:34:47.297Z,2.47
2022-12-27T04:37:20.021Z,2.53
2022-12-27T04:40:08.388Z,2.63
2022-12-27T04:43:02.838Z,2.61
2022-12-27T04:45:49.215Z,2.57
2022-12-27T04:48:41.273Z,2.49
2022-12-27T04:51:35.248Z,2.52
2022-12-27T04:54:21.574Z,2.39
2022-12-27T04:57:01.180Z,2.46
2022-12-27T04:59:47.766Z,2.36
2022-12-27T05:02:20.623Z,2.36
2022-12-27T05:05:01.244Z,2.38
2022-12-27T05:07:50.401Z,2.36
2022-12-27T05:10:36.365Z,2.34
2022-12-27T05:13:23.630Z,2.39
2022-12-27T05:15:52.468Z,2.44
2022-12-27T05:18:24.559Z,2.49
2022-12-27T05:20:57.649Z,2.59
2022-12-27T05:23:44.859Z,2.77
2022-12-27T05:26:23.647Z,2.88
2022-12-27T05:29:02.153Z,2.94
2022-12-27T05:31:32.124Z,2.99
2022-12-27T05:34:02.504Z,3.01
2022-12-27T05:36:33.841Z,3.00
2022-12-27T05:39:03.795Z,3.01
2022-12-27T05:41:33.311Z,2.93
2022-12-27T05:44:07.571Z,2.96
2022-12-27T05:46:41.020Z,2.94
2022-12-27T05:49:10.218Z,2.96
2022-12-27T05:51:40.095Z,2.96
2022-12-27T05:54:09.147Z,2.92
2022-12-27T05:56:38.977Z,2.95
2022-12-27T05:59:09.463Z,2.83
2022-12-27T06:01:38.149Z,2.74
2022-12-27T06:04:07.033Z,2.72
2022-12-27T06:06:39.279Z,2.69
2022-12-27T06:09:08.237Z,2.63
2022-12-27T06:11:39.194Z,2.63
2022-12-27T06:14:15.077Z,2.66
2022-12-27T06:16:44.274Z,2.62
2022-12-27T06:19:17.865Z,2.58
2022-12-27T06:21:48.117Z,2.63
2022-12-27T06:24:25.644Z,2.65
2022-12-27T06:26:59.721Z,2.67
2022-12-27T06:29:30.860Z,2.64
2022-12-27T06:32:06.170Z,2.57
2022-12-27T06:34:35.000Z,2.52
2022-12-27T06:37:04.743Z,2.51
2022-12-27T06:39:37.674Z,2.43
2022-12-27T06:42:11.882Z,2.43
2022-12-27T06:44:44.054Z,2.48
2022-12-27T06:47:16.304Z,2.46
2022-12-27T06:49:53.169Z,2.47
2022-12-27T06:52:23.552Z,2.51
2022-12-27T06:54:52.615Z,2.51
2022-12-27T06:57:21.782Z,2.50
2022-12-27T06:59:54.121Z,2.49
2022-12-27T07:02:24.547Z,2.47
2022-12-27T07:04:58.534Z,2.47
2022-12-27T07:07:29.738Z,2.45
2022-12-27T07:10:01.803Z,2.43
2022-12-27T07:12:36.418Z,2.37
2022-12-27T07:15:12.073Z,2.38
2022-12-27T07:17:46.097Z,2.37
2022-12-27T07:20:14.977Z,2.39
2022-12-27T07:22:43.991Z,2.29
2022-12-27T07:25:13.086Z,2.19
2022-12-27T07:27:42.370Z,2.18
2022-12-27T07:30:13.310Z,2.11
2022-12-27T07:32:46.856Z,2.17
2022-12-27T07:35:31.810Z,2.12
2022-12-27T07:38:03.048Z,2.10
2022-12-27T07:40:34.210Z,2.17
2022-12-27T07:43:03.444Z,2.16
2022-12-27T07:45:34.370Z,2.16
2022-12-27T07:48:04.954Z,2.15
2022-12-27T07:50:33.593Z,2.15
2022-12-27T07:53:03.033Z,2.13
2022-12-27T07:55:32.847Z,2.21
2022-12-27T07:58:01.659Z,2.33
2022-12-27T08:00:30.455Z,2.36
2022-12-27T08:03:04.523Z,2.42
2022-12-27T08:05:33.934Z,2.47
2022-12-27T08:08:02.731Z,2.41
2022-12-27T08:10:36.412Z,2.31
2022-12-27T08:13:05.077Z,2.21
2022-12-27T08:15:33.699Z,2.11
2022-12-27T08:18:06.537Z,2.15
2022-12-27T08:20:35.505Z,2.15
2022-12-27T08:23:04.181Z,2.22
2022-12-27T08:25:32.825Z,2.40
2022-12-27T08:28:06.165Z,2.39
2022-12-27T08:30:35.312Z,2.34
2022-12-27T08:33:10.357Z,2.26
2022-12-27T08:35:53.727Z,2.20
2022-12-27T08:38:30.324Z,2.26
2022-12-27T08:41:03.217Z,2.41
2022-12-27T08:43:37.603Z,2.46
2022-12-27T08:46:12.573Z,2.43
2022-12-27T08:48:42.808Z,2.46
2022-12-27T08:51:18.491Z,2.41
2022-12-27T08:53:59.347Z,2.50
2022-12-27T08:56:32.795Z,2.50
2022-12-27T08:59:03.329Z,2.51
2022-12-27T09:01:32.998Z,2.54
2022-12-27T09:04:03.329Z,2.61
2022-12-27T09:06:34.705Z,2.63
2022-12-27T09:09:03.444Z,2.64
2022-12-27T09:15:47.512Z,2.67
2022-12-27T09:18:32.585Z,2.74
2022-12-27T09:21:09.546Z,2.74
2022-12-27T09:23:41.829Z,2.79
2022-12-27T09:26:19.285Z,2.91
2022-12-27T09:29:01.912Z,3.07
2022-12-27T09:31:30.910Z,3.13
2022-12-27T09:34:04.110Z,3.25
2022-12-27T09:36:34.597Z,3.19
2022-12-27T09:39:03.742Z,3.17
2022-12-27T09:42:44.985Z,3.09
2022-12-27T09:44:51.246Z,2.93
2022-12-27T09:47:31.082Z,2.87
2022-12-27T09:50:06.387Z,2.75
2022-12-27T09:52:53.477Z,2.73
2022-12-27T09:55:31.228Z,2.70
2022-12-27T09:58:30.415Z,2.76
2022-12-27T10:01:08.333Z,3.12
2022-12-27T10:03:36.826Z,3.39
2022-12-27T10:06:24.889Z,3.52
2022-12-27T10:09:18.920Z,3.66
2022-12-27T10:12:02.004Z,3.89
2022-12-27T10:15:00.283Z,4.05
2022-12-27T10:17:53.315Z,3.91
2022-12-27T10:20:37.072Z,4.01
2022-12-27T10:23:12.921Z,4.25
2022-12-27T10:25:46.573Z,4.17
2022-12-27T10:28:27.826Z,3.66
2022-12-27T10:30:57.472Z,3.75
2022-12-27T10:33:31.219Z,3.91
2022-12-27T10:36:11.288Z,4.45
2022-12-27T10:38:40.221Z,4.28
2022-12-27T10:41:40.061Z,3.71
2022-12-27T10:44:12.854Z,3.31
2022-12-27T10:46:46.231Z,3.09
2022-12-27T10:49:29.571Z,2.92
2022-12-27T10:52:12.417Z,3.05
2022-12-27T10:54:53.664Z,3.75
2022-12-27T10:57:30.790Z,4.10
2022-12-27T11:00:20.944Z,4.30
2022-12-27T11:02:54.612Z,4.52
2022-12-27T11:05:30.196Z,4.60
2022-12-27T11:08:20.777Z,4.51
2022-12-27T11:10:49.412Z,4.48
2022-12-27T11:13:20.874Z,3.93
2022-12-27T11:16:01.843Z,4.33
2022-12-27T11:18:35.829Z,3.93
2022-12-27T11:21:04.715Z,4.10
2022-12-27T11:23:46.142Z,4.57
2022-12-27T11:26:24.113Z,4.62
2022-12-27T11:28:59.645Z,4.13
2022-12-27T11:31:35.894Z,4.36
2022-12-27T11:34:16.117Z,4.40
2022-12-27T11:36:51.198Z,4.19
2022-12-27T11:39:40.425Z,4.34
2022-12-27T11:42:21.251Z,4.44
2022-12-27T11:45:13.737Z,4.63
2022-12-27T11:47:51.197Z,4.60
2022-12-27T11:50:52.106Z,4.84
2022-12-27T11:54:09.481Z,4.80
2022-12-27T11:56:43.081Z,4.24
2022-12-27T11:59:39.112Z,3.94
2022-12-27T12:03:00.517Z,3.81
2022-12-27T12:06:09.251Z,4.44
2022-12-27T12:09:16.254Z,4.57
2022-12-27T12:12:18.591Z,4.32
2022-12-27T12:16:00.148Z,4.40
2022-12-27T12:18:50.899Z,4.42
2022-12-27T12:21:27.336Z,4.43
2022-12-27T12:24:37.861Z,4.17
2022-12-27T12:27:41.343Z,4.00
2022-12-27T12:30:46.103Z,3.97
2022-12-27T12:33:51.216Z,4.05
2022-12-27T12:37:02.431Z,4.17
2022-12-27T12:40:04.799Z,4.21
2022-12-27T12:42:50.788Z,4.37
2022-12-27T12:45:37.243Z,4.40
2022-12-27T12:48:56.466Z,4.26
2022-12-27T12:52:00.456Z,4.11
2022-12-27T12:55:04.443Z,3.97
2022-12-27T12:57:53.735Z,3.91
2022-12-27T13:01:06.375Z,3.84
2022-12-27T13:04:02.835Z,3.87
2022-12-27T13:07:19.486Z,3.85
2022-12-27T13:10:32.286Z,3.71
2022-12-27T13:13:13.608Z,3.69
2022-12-27T13:16:11.701Z,3.71
2022-12-27T13:19:02.311Z,3.74
2022-12-27T13:22:02.075Z,3.82
2022-12-27T13:24:54.173Z,3.91
2022-12-27T13:27:38.108Z,3.97
2022-12-27T13:30:20.503Z,3.95
2022-12-27T13:33:34.224Z,3.98
2022-12-27T13:36:26.092Z,3.95
2022-12-27T13:39:28.695Z,3.97
2022-12-27T13:42:31.050Z,3.90
2022-12-27T13:45:18.468Z,3.87
2022-12-27T13:48:17.711Z,3.87
2022-12-27T13:51:18.337Z,3.94
2022-12-27T13:54:34.187Z,3.92
2022-12-27T13:57:19.978Z,3.92
2022-12-27T14:00:15.566Z,3.87
2022-12-27T14:03:25.067Z,3.81
2022-12-27T14:06:29.857Z,3.72
2022-12-27T14:09:57.969Z,3.66
2022-12-27T14:13:00.011Z,3.64
2022-12-27T14:16:22.457Z,3.77
2022-12-27T14:19:19.415Z,3.77
2022-12-27T14:22:41.861Z,3.81
2022-12-27T14:26:16.959Z,3.88
2022-12-27T14:29:49.998Z,3.91
2022-12-27T14:33:17.946Z,3.88
2022-12-27T14:37:07.184Z,3.82
2022-12-27T14:40:35.172Z,3.52
2022-12-27T14:44:06.018Z,3.43
2022-12-27T14:47:32.473Z,3.46
2022-12-27T14:51:08.127Z,3.30
2022-12-27T14:54:31.349Z,3.21
2022-12-27T14:57:16.332Z,3.09
2022-12-27T15:00:01.361Z,3.09
2022-12-27T15:03:11.460Z,3.11
2022-12-27T15:05:59.959Z,3.17
2022-12-27T15:08:55.119Z,3.23
2022-12-27T15:12:15.126Z,3.36
2022-12-27T15:15:19.173Z,3.44
2022-12-27T15:18:10.463Z,3.40
2022-12-27T15:21:10.661Z,3.29
2022-12-27T15:23:54.385Z,3.28
2022-12-27T15:26:36.493Z,3.23
2022-12-27T15:29:44.323Z,3.33
2022-12-27T15:32:33.471Z,3.47
2022-12-27T15:35:48.774Z,3.45
2022-12-27T15:38:52.982Z,3.33
2022-12-27T15:41:47.822Z,3.34
2022-12-27T15:44:51.280Z,3.20
2022-12-27T15:48:04.334Z,3.04
2022-12-27T15:50:58.872Z,3.05
2022-12-27T15:53:46.420Z,3.02
2022-12-27T15:56:45.187Z,3.16
2022-12-27T15:59:51.892Z,3.20
2022-12-27T16:02:35.954Z,3.22
2022-12-27T16:05:35.041Z,3.22
2022-12-27T16:08:40.173Z,3.19
2022-12-27T16:11:14.301Z,3.20
2022-12-27T16:13:48.930Z,3.16
2022-12-27T16:16:58.899Z,3.10
2022-12-27T16:19:51.875Z,3.08
2022-12-27T16:22:31.691Z,3.02
2022-12-27T16:25:31.234Z,2.92
2022-12-27T16:28:08.066Z,2.92
2022-12-27T16:30:45.489Z,2.79
2022-12-27T16:33:41.108Z,2.83
2022-12-27T16:36:23.632Z,2.88
2022-12-27T16:39:23.113Z,2.75
2022-12-27T16:42:09.673Z,2.71
2022-12-27T16:45:03.136Z,2.89
2022-12-27T16:48:13.007Z,2.90
2022-12-27T16:51:25.701Z,2.88
2022-12-27T16:54:09.596Z,2.62
2022-12-27T16:56:42.103Z,2.53
2022-12-27T17:00:05.657Z,2.60
2022-12-27T17:02:46.618Z,2.36
2022-12-27T17:05:39.761Z,2.24
2022-12-27T17:08:20.332Z,2.12
2022-12-27T17:11:03.563Z,2.03
2022-12-27T17:13:48.844Z,2.13
2022-12-27T17:16:25.510Z,1.93
2022-12-27T17:19:01.572Z,1.94
2022-12-27T17:21:33.774Z,1.95
2022-12-27T17:24:08.936Z,2.01
2022-12-27T17:27:10.836Z,2.19
2022-12-27T17:30:14.542Z,2.02
2022-12-27T17:33:24.748Z,2.12
2022-12-27T17:36:33.410Z,2.06
2022-12-27T17:39:22.218Z,2.04
2022-12-27T17:42:23.404Z,2.06
2022-12-27T17:45:22.019Z,1.92
2022-12-27T17:48:08.037Z,1.77
2022-12-27T17:50:41.573Z,1.81
2022-12-27T17:53:38.979Z,1.75
2022-12-27T18:15:16.318Z,1.18
2022-12-27T18:17:50.361Z,1.31
2022-12-27T18:20:45.193Z,1.26
2022-12-27T18:23:34.626Z,1.20
2022-12-27T18:26:15.573Z,1.32
2022-12-27T18:28:50.553Z,1.23
2022-12-27T18:31:38.181Z,1.32
2022-12-27T18:34:37.640Z,1.42
2022-12-27T18:37:14.866Z,1.32
2022-12-27T18:39:55.049Z,1.08
2022-12-27T18:42:40.810Z,1.07
2022-12-27T18:45:30.358Z,1.25
2022-12-27T18:48:28.504Z,1.26
2022-12-27T18:51:07.229Z,1.21
2022-12-27T18:53:43.978Z,1.29
2022-12-27T18:56:33.862Z,1.12
2022-12-27T18:59:15.735Z,1.03
2022-12-27T19:01:55.234Z,1.19
2022-12-27T19:04:35.833Z,1.38
2022-12-27T19:07:17.381Z,1.46
2022-12-27T19:10:19.929Z,1.53
2022-12-27T19:12:53.774Z,1.42
2022-12-27T19:15:38.298Z,1.45
2022-12-27T19:18:25.636Z,1.42
2022-12-27T19:21:13.443Z,1.37
2022-12-27T19:24:14.489Z,1.33
2022-12-27T19:27:16.951Z,1.40
2022-12-27T19:30:33.610Z,1.46
2022-12-27T19:33:15.022Z,1.55
2022-12-27T19:35:50.406Z,1.41
2022-12-27T19:38:31.499Z,1.55
2022-12-27T19:41:16.647Z,1.45
2022-12-27T19:43:49.348Z,1.44
2022-12-27T19:46:30.856Z,1.52
2022-12-27T19:49:46.904Z,1.54
2022-12-27T19:52:20.763Z,1.47
2022-12-27T19:55:01.548Z,1.45
2022-12-27T19:57:42.125Z,1.46
2022-12-27T20:00:20.963Z,1.46
2022-12-27T20:02:54.771Z,1.33
2022-12-27T20:06:11.074Z,1.33
2022-12-27T20:08:29.266Z,1.33
2022-12-27T20:11:32.046Z,1.44
2022-12-27T20:14:05.983Z,1.27
2022-12-27T20:16:38.430Z,1.29
2022-12-27T20:19:07.226Z,1.28
2022-12-27T20:21:46.040Z,1.26
2022-12-27T20:24:23.159Z,1.31
2022-12-27T20:27:11.146Z,1.34
2022-12-27T20:29:42.102Z,1.40
2022-12-27T20:32:15.641Z,1.43
2022-12-27T20:34:48.824Z,1.46
2022-12-27T20:37:24.747Z,1.44
2022-12-27T20:40:02.741Z,1.46
2022-12-27T20:42:34.090Z,1.50
2022-12-27T20:45:08.150Z,1.64
2022-12-27T20:47:39.346Z,1.74
2022-12-27T20:50:11.906Z,1.79
2022-12-27T20:52:45.261Z,1.79
2022-12-27T20:55:19.177Z,1.78
2022-12-27T20:57:54.445Z,1.73
2022-12-27T21:00:26.949Z,1.69
2022-12-27T21:03:05.470Z,1.60
2022-12-27T21:05:34.814Z,1.52
2022-12-27T21:08:06.395Z,1.55
2022-12-27T21:10:38.155Z,1.47
2022-12-27T21:13:07.840Z,1.51
2022-12-27T21:15:42.291Z,1.56
2022-12-27T21:18:11.784Z,1.57
2022-12-27T21:20:40.425Z,1.62
2022-12-27T21:23:10.702Z,1.71
2022-12-27T21:25:39.299Z,1.87
2022-12-27T21:28:10.916Z,1.96
2022-12-27T21:30:39.585Z,2.04
2022-12-27T21:33:08.124Z,2.20
2022-12-27T21:35:38.414Z,2.19
2022-12-27T21:38:06.978Z,2.26
2022-12-27T21:40:37.009Z,2.34
2022-12-27T21:43:08.901Z,2.34
2022-12-27T21:45:40.753Z,2.48
2022-12-27T21:48:09.152Z,2.58
2022-12-27T21:50:37.756Z,2.61
2022-12-27T21:53:06.239Z,2.61
2022-12-27T21:55:36.446Z,2.72
2022-12-27T21:58:06.462Z,2.71
2022-12-27T22:00:35.292Z,2.71
2022-12-27T22:03:04.033Z,2.67
2022-12-27T22:05:33.377Z,2.68
2022-12-27T22:08:01.873Z,2.66
2022-12-27T22:10:31.331Z,2.74
2022-12-27T22:13:01.333Z,2.76
2022-12-27T22:15:30.099Z,2.78
2022-12-27T22:18:01.115Z,2.88
2022-12-27T22:20:32.541Z,2.90
2022-12-27T22:23:01.078Z,2.97
2022-12-27T22:25:29.737Z,2.93
2022-12-27T22:28:02.732Z,2.97
2022-12-27T22:30:31.226Z,3.01
2022-12-27T22:33:02.726Z,3.05
2022-12-27T22:35:31.952Z,3.11
2022-12-27T22:38:01.729Z,3.12
2022-12-27T22:40:40.761Z,3.21
2022-12-27T22:43:16.253Z,3.14
2022-12-27T22:45:48.931Z,3.16
2022-12-27T22:48:21.998Z,3.13
2022-12-27T22:50:50.784Z,3.12
2022-12-27T22:53:21.945Z,3.07
2022-12-27T22:55:50.523Z,3.20
2022-12-27T22:58:20.435Z,3.26
2022-12-27T23:00:49.121Z,3.28
2022-12-27T23:03:21.249Z,3.27
2022-12-27T23:05:59.676Z,3.36
2022-12-27T23:08:28.728Z,3.35
2022-12-27T23:11:09.515Z,3.30
2022-12-27T23:13:39.880Z,3.43
2022-12-27T23:16:09.829Z,3.37
2022-12-27T23:18:40.237Z,3.42
2022-12-27T23:21:21.165Z,3.42
2022-12-27T23:23:54.409Z,3.42
2022-12-27T23:26:25.200Z,3.37
2022-12-27T23:29:00.087Z,3.25
2022-12-27T23:31:29.485Z,3.28
2022-12-27T23:34:08.901Z,3.41
2022-12-27T23:36:37.803Z,3.48
2022-12-27T23:39:14.320Z,3.49
2022-12-27T23:41:43.062Z,3.49
2022-12-27T23:44:19.748Z,3.44
2022-12-27T23:47:01.507Z,3.51
2022-12-27T23:49:30.066Z,3.55
2022-12-27T23:52:06.546Z,3.57
2022-12-27T23:54:35.354Z,3.57
2022-12-27T23:57:20.033Z,3.53
2022-12-27T23:59:51.629Z,3.61
